Time;durP1;ratioP1;P1;durP2;ratioP2;P2;SDS_P1;SDS_P2;PMS_P1;PMS_P2;Temp;Humidity;BMP_temperature;BMP_pressure;BME280_temperature;BME280_humidity;BME280_pressure;Samples;Min_cycle;Max_cycle;Signal;HPM_P1;HPM_P2
2021/11/15 00:04:56;;;;;;;47.37;20.93;;;;;;;5.39;100.00;102176.09;5209090;56;1141176;-79
2021/11/15 00:10:02;;;;;;;32.13;14.17;;;;;;;5.40;100.00;102176.95;5209276;55;1143428;-77
2021/11/15 00:15:08;;;;;;;44.03;20.67;;;;;;;5.39;100.00;102183.95;5209198;55;1141083;-74
2021/11/15 00:20:15;;;;;;;44.90;21.50;;;;;;;5.37;100.00;102182.28;5205264;55;1141082;-76
2021/11/15 00:25:21;;;;;;;50.97;22.00;;;;;;;5.34;100.00;102187.64;5202226;55;1139120;-78
2021/11/15 00:30:27;;;;;;;43.20;19.77;;;;;;;5.31;100.00;102189.90;5170821;56;1141052;-77
2021/11/15 00:35:33;;;;;;;47.60;24.10;;;;;;;5.34;100.00;102183.25;5185659;55;1141059;-79
2021/11/15 00:40:39;;;;;;;56.60;24.87;;;;;;;5.31;100.00;102187.27;5211783;55;1141109;-78
2021/11/15 00:45:45;;;;;;;50.83;22.33;;;;;;;5.32;100.00;102191.62;5170524;56;1141083;-79
2021/11/15 00:50:51;;;;;;;48.90;23.53;;;;;;;5.33;100.00;102192.48;5170614;56;1141085;-77
2021/11/15 00:55:57;;;;;;;59.87;24.80;;;;;;;5.33;100.00;102183.30;5170642;56;1141110;-79
2021/11/15 01:01:03;;;;;;;54.40;26.07;;;;;;;5.35;100.00;102179.70;5170793;56;1141095;-77
2021/11/15 01:06:09;;;;;;;55.87;25.20;;;;;;;5.33;100.00;102163.17;5170336;56;1141090;-78
2021/11/15 01:11:15;;;;;;;56.30;26.20;;;;;;;5.33;100.00;102173.66;5170336;56;1141100;-78
2021/11/15 01:16:21;;;;;;;66.87;29.27;;;;;;;5.37;100.00;102169.16;5170288;56;1141017;-79
2021/11/15 01:21:28;;;;;;;63.83;28.53;;;;;;;5.36;100.00;102165.68;5173428;56;1141553;-77
2021/11/15 01:26:34;;;;;;;53.30;26.17;;;;;;;5.34;100.00;102167.52;5174984;56;1139319;-81
2021/11/15 01:31:40;;;;;;;54.37;27.03;;;;;;;5.34;100.00;102174.08;5174922;56;1141184;-79
2021/11/15 01:36:46;;;;;;;55.73;25.53;;;;;;;5.35;100.00;102178.39;5174898;56;1141064;-81
2021/11/15 01:41:54;;;;;;;54.97;27.07;;;;;;;5.34;100.00;102178.02;5174956;56;1139014;-78
2021/11/15 01:47:00;;;;;;;48.73;21.10;;;;;;;5.30;100.00;102175.92;5175042;56;1136830;-80
2021/11/15 01:52:07;;;;;;;51.03;21.80;;;;;;;5.27;100.00;102179.08;5175136;56;1143300;-80
2021/11/15 01:57:14;;;;;;;46.13;22.77;;;;;;;5.21;100.00;102180.10;5175330;56;1143093;-78
2021/11/15 02:02:25;;;;;;;57.80;25.60;;;;;;;5.14;100.00;102183.82;5166392;56;1141000;-78
2021/11/15 02:07:27;;;;;;;52.20;22.70;;;;;;;5.16;100.00;102188.58;5175545;56;1143203;-78
2021/11/15 02:12:33;;;;;;;51.37;24.27;;;;;;;5.15;100.00;102184.69;5175022;56;1143061;-78
2021/11/15 02:17:45;;;;;;;46.60;20.67;;;;;;;5.09;100.00;102184.39;5174996;56;1143360;-78
2021/11/15 02:22:54;;;;;;;52.30;25.27;;;;;;;5.05;100.00;102182.75;5170558;56;1143388;-80
2021/11/15 02:28:00;;;;;;;58.23;26.40;;;;;;;5.05;100.00;102185.38;5170615;56;1143180;-82
2021/11/15 02:33:09;;;;;;;63.30;26.53;;;;;;;5.09;100.00;102178.29;5170891;56;1143416;-78
2021/11/15 02:38:14;;;;;;;61.10;26.40;;;;;;;5.13;100.00;102186.48;5195669;55;1141125;-78
2021/11/15 02:43:20;;;;;;;62.03;26.40;;;;;;;5.14;100.00;102185.58;5185833;55;1143365;-81
2021/11/15 02:48:30;;;;;;;61.00;27.47;;;;;;;5.12;100.00;102190.01;5207267;56;1143099;-77
2021/11/15 02:53:36;;;;;;;60.10;27.13;;;;;;;5.14;100.00;102190.38;5186889;56;1143183;-75
2021/11/15 02:58:42;;;;;;;61.30;29.20;;;;;;;5.13;100.00;102200.91;5171007;56;1141077;-78
2021/11/15 03:03:48;;;;;;;64.87;27.13;;;;;;;5.11;100.00;102193.08;5170793;56;1143238;-77
2021/11/15 03:08:54;;;;;;;51.60;23.93;;;;;;;5.11;100.00;102186.52;5170786;56;1143224;-78
2021/11/15 03:14:00;;;;;;;63.00;28.57;;;;;;;5.13;100.00;102189.97;5170821;56;1143035;-76
2021/11/15 03:19:06;;;;;;;68.77;31.80;;;;;;;5.13;100.00;102189.97;5171686;56;1143384;-75
2021/11/15 03:24:12;;;;;;;69.10;30.47;;;;;;;5.10;100.00;102187.42;5175264;56;1143130;-78
2021/11/15 03:29:17;;;;;;;62.27;29.90;;;;;;;5.12;100.00;102188.25;5175369;56;1143080;-76
2021/11/15 03:34:24;;;;;;;69.92;32.33;;;;;;;5.07;100.00;102198.00;5175108;56;1143258;-76
2021/11/15 03:39:31;;;;;;;57.17;25.13;;;;;;;5.02;100.00;102202.98;5175286;56;1141173;-76
2021/11/15 03:44:36;;;;;;;51.23;23.40;;;;;;;5.02;100.00;102205.16;5175252;56;1143034;-80
2021/11/15 03:49:42;;;;;;;46.97;20.47;;;;;;;5.03;100.00;102204.25;5175255;56;1143204;-77
2021/11/15 03:54:47;;;;;;;73.27;31.57;;;;;;;5.03;100.00;102208.63;5175367;56;1141023;-76
2021/11/15 03:59:53;;;;;;;39.63;19.77;;;;;;;5.00;100.00;102200.40;5175214;56;1143125;-78
2021/11/15 04:05:04;;;;;;;68.53;32.23;;;;;;;5.02;100.00;102200.36;5170748;56;1143162;-80
2021/11/15 04:10:17;;;;;;;73.50;32.90;;;;;;;5.00;100.00;102202.16;5154858;56;1143123;-82
2021/11/15 04:15:24;;;;;;;66.02;31.05;;;;;;;4.99;100.00;102205.23;5066625;57;1140992;-80
2021/11/15 04:20:31;;;;;;;71.53;33.53;;;;;;;5.02;100.00;102203.84;5092534;57;1143207;-78
2021/11/15 04:25:38;;;;;;;81.33;34.83;;;;;;;5.05;100.00;102204.18;5177716;56;1143193;-77
2021/11/15 04:30:44;;;;;;;73.73;33.90;;;;;;;5.05;100.00;102204.18;5170497;56;1143192;-77
2021/11/15 04:35:50;;;;;;;71.40;34.20;;;;;;;5.03;100.00;102199.01;5178360;55;1141009;-80
2021/11/15 04:40:56;;;;;;;78.70;36.20;;;;;;;5.06;100.00;102202.83;5204140;56;1143085;-81
2021/11/15 04:46:04;;;;;;;85.73;38.63;;;;;;;5.11;100.00;102203.57;5175985;56;1141074;-78
2021/11/15 04:51:10;;;;;;;78.73;33.77;;;;;;;5.13;100.00;102193.04;5170539;56;1141085;-77
2021/11/15 04:56:16;;;;;;;68.65;32.55;;;;;;;5.12;100.00;102193.94;5174487;55;1141047;-78
2021/11/15 05:01:22;;;;;;;73.57;32.73;;;;;;;5.10;100.00;102193.98;5181427;55;1141059;-78
2021/11/15 05:06:27;;;;;;;67.83;34.30;;;;;;;5.13;100.00;102188.66;5170507;56;1141014;-80
2021/11/15 05:11:33;;;;;;;64.27;30.17;;;;;;;5.12;100.00;102191.32;5170465;56;1141062;-80
2021/11/15 05:16:39;;;;;;;73.57;32.77;;;;;;;5.10;100.00;102183.94;5170703;56;1141176;-81
2021/11/15 05:21:45;;;;;;;61.13;30.97;;;;;;;5.06;100.00;102177.05;5173765;56;1141210;-79
2021/11/15 05:26:51;;;;;;;72.10;35.27;;;;;;;5.07;100.00;102182.27;5174965;56;1141087;-80
2021/11/15 05:31:57;;;;;;;63.27;29.50;;;;;;;5.06;100.00;102177.05;5175166;56;1141340;-79
2021/11/15 05:37:02;;;;;;;72.30;32.20;;;;;;;5.03;100.00;102180.66;5175148;56;1139174;-81
2021/11/15 05:42:08;;;;;;;66.20;31.67;;;;;;;5.06;100.00;102188.41;5175001;56;1141080;-78
2021/11/15 05:47:15;;;;;;;62.00;28.23;;;;;;;5.11;100.00;102190.91;5174882;56;1141015;-75
2021/11/15 05:52:23;;;;;;;63.33;32.13;;;;;;;5.07;100.00;102184.88;5163838;56;1141042;-78
2021/11/15 05:57:28;;;;;;;67.53;31.10;;;;;;;5.05;100.00;102191.92;5109604;56;1141110;-77
2021/11/15 06:02:34;;;;;;;75.23;30.17;;;;;;;5.08;100.00;102193.61;5128184;57;1141278;-80
2021/11/15 06:07:42;;;;;;;62.53;30.60;;;;;;;5.08;100.00;102194.92;5143892;57;1141197;-76
2021/11/15 06:12:48;;;;;;;63.73;31.00;;;;;;;5.10;100.00;102206.23;5113096;57;1138969;-78
2021/11/15 06:17:54;;;;;;;57.23;28.43;;;;;;;5.14;100.00;102204.80;5139440;56;1139100;-76
2021/11/15 06:23:00;;;;;;;72.40;30.93;;;;;;;5.14;100.00;102207.42;5154487;56;1143070;-76
2021/11/15 06:28:06;;;;;;;57.27;27.63;;;;;;;5.11;100.00;102210.58;5128737;56;1143140;-77
2021/11/15 06:33:12;;;;;;;69.97;32.97;;;;;;;5.13;100.00;102208.33;5133186;57;1143301;-81
2021/11/15 06:38:18;;;;;;;72.30;34.25;;;;;;;5.11;100.00;102211.89;5091397;57;1143146;-79
2021/11/15 06:43:24;;;;;;;58.20;28.20;;;;;;;5.12;100.00;102209.23;5091169;57;1141084;-80
2021/11/15 06:48:37;;;;;;;49.73;26.30;;;;;;;5.12;100.00;102209.68;5129753;54;1143120;-75
2021/11/15 06:53:39;;;;;;;60.20;28.27;;;;;;;5.15;100.00;102213.53;5209100;56;1143322;-77
2021/11/15 06:58:45;;;;;;;58.70;29.67;;;;;;;5.18;100.00;102210.83;5295960;55;1143145;-76
2021/11/15 07:03:50;;;;;;;53.67;26.93;;;;;;;5.21;100.00;102215.52;5299171;55;1143158;-76
2021/11/15 07:08:56;;;;;;;50.60;26.40;;;;;;;5.19;100.00;102217.34;5234222;55;1143101;-77
2021/11/15 07:14:03;;;;;;;48.35;23.22;;;;;;;5.22;100.00;102224.24;5216703;55;1143438;-76
2021/11/15 07:19:09;;;;;;;55.40;26.40;;;;;;;5.23;100.00;102223.34;5146497;56;1143290;-77
2021/11/15 07:24:15;;;;;;;55.97;27.60;;;;;;;5.19;100.00;102225.67;5118130;57;1143186;-73
2021/11/15 07:29:21;;;;;;;47.63;25.50;;;;;;;5.19;100.00;102233.09;5228511;54;1143000;-77
2021/11/15 07:34:30;;;;;;;65.23;27.43;;;;;;;5.20;100.00;102233.91;5297247;55;1143067;-78
2021/11/15 07:39:43;;;;;;;55.27;27.47;;;;;;;5.21;100.00;102235.64;5297386;54;1143135;-75
2021/11/15 07:44:50;;;;;;;58.37;29.30;;;;;;;5.25;100.00;102235.52;5297202;54;1143108;-78
2021/11/15 07:49:56;;;;;;;51.33;26.33;;;;;;;5.27;100.00;102231.54;5297440;54;1141090;-74
2021/11/15 07:55:02;;;;;;;49.10;24.83;;;;;;;5.29;100.00;102237.61;5297015;55;1143242;-76
2021/11/15 08:00:11;;;;;;;59.80;30.20;;;;;;;5.33;100.00;102234.00;5297492;54;1143372;-77
2021/11/15 08:05:19;;;;;;;94.43;46.37;;;;;;;5.36;100.00;102233.03;5260781;55;1143303;-75
2021/11/15 08:10:25;;;;;;;172.37;71.60;;;;;;;5.32;100.00;102238.84;5175023;56;1141007;-75
2021/11/15 08:15:31;;;;;;;76.20;34.00;;;;;;;5.29;100.00;102236.30;5175264;56;1145166;-77
2021/11/15 08:20:39;;;;;;;43.90;21.77;;;;;;;5.34;100.00;102234.87;5178077;56;1143108;-79
2021/11/15 08:26:26;;;;;;;40.28;21.97;;;;;;;5.37;100.00;102221.63;5174516;56;1143157;-79
2021/11/15 08:31:32;;;;;;;39.47;20.50;;;;;;;5.38;100.00;102230.77;5176152;56;1143198;-92
2021/11/15 08:36:41;;;;;;;34.43;18.30;;;;;;;5.37;100.00;102230.36;5176995;56;1143067;-88
2021/11/15 08:41:52;;;;;;;30.37;17.07;;;;;;;5.37;100.00;102221.19;5179920;55;1140970;-92
2021/11/15 08:46:59;;;;;;;41.57;21.93;;;;;;;5.37;100.00;102221.19;5181767;56;1141112;-89
2021/11/15 08:52:07;;;;;;;35.90;19.93;;;;;;;5.36;100.00;102230.41;5171004;56;1138904;-88
2021/11/15 08:57:14;;;;;;;40.73;20.63;;;;;;;5.40;100.00;102228.11;5175935;56;1141169;-93
2021/11/15 09:02:20;;;;;;;31.20;16.23;;;;;;;5.38;100.00;102228.60;5176081;56;1140979;-87
2021/11/15 09:07:27;;;;;;;46.20;21.13;;;;;;;5.39;100.00;102225.94;5240242;56;1141088;-89
2021/11/15 09:12:35;;;;;;;33.77;19.30;;;;;;;5.34;100.00;102223.92;5269064;55;1141111;-89
2021/11/15 09:17:43;;;;;;;41.90;21.20;;;;;;;5.35;100.00;102230.86;5293697;55;1140918;-85
2021/11/15 09:22:49;;;;;;;41.00;22.77;;;;;;;5.38;100.00;102220.28;5172342;55;1141112;-91
2021/11/15 09:27:55;;;;;;;40.30;22.10;;;;;;;5.48;100.00;102227.45;5160361;56;1141056;-92
2021/11/15 09:33:01;;;;;;;47.53;22.57;;;;;;;5.47;100.00;102225.73;5097877;56;1141194;-90
2021/11/15 09:38:07;;;;;;;43.67;20.43;;;;;;;5.48;100.00;102227.45;5120604;57;1140319;-93
2021/11/15 09:43:14;;;;;;;33.57;19.70;;;;;;;5.45;100.00;102218.36;5182741;55;1141086;-86
2021/11/15 09:48:20;;;;;;;46.17;25.93;;;;;;;5.45;100.00;102216.59;5098637;58;1141063;-90
2021/11/15 09:53:26;;;;;;;41.23;25.63;;;;;;;5.43;100.00;102218.84;5097423;57;1138897;-92
2021/11/15 09:58:32;;;;;;;44.73;25.40;;;;;;;5.46;100.00;102214.83;5103392;55;1139269;-89
2021/11/15 10:03:38;;;;;;;50.87;26.93;;;;;;;5.51;100.00;102218.16;5173833;57;1139069;-89
2021/11/15 10:08:56;;;;;;;46.93;23.40;;;;;;;5.51;100.00;102216.39;5321775;56;21134;-94
2021/11/15 10:14:05;;;;;;;41.37;20.40;;;;;;;5.49;100.00;102218.68;5189265;56;1138732;-90
2021/11/15 10:19:14;;;;;;;39.47;22.30;;;;;;;5.45;100.00;102206.55;5178251;56;1143158;-89
2021/11/15 10:24:26;;;;;;;38.17;22.30;;;;;;;5.37;100.00;102201.95;5175435;56;1143035;-91
2021/11/15 10:29:35;;;;;;;40.80;23.20;;;;;;;5.33;100.00;102197.28;5175168;56;1140866;-92
2021/11/15 10:35:00;;;;;;;41.83;21.37;;;;;;;5.32;100.00;102199.49;5172926;56;1143168;-88
2021/11/15 10:40:13;;;;;;;44.60;23.53;;;;;;;5.35;100.00;102204.62;5146090;57;1143041;-89
2021/11/15 10:45:25;;;;;;;48.98;25.90;;;;;;;5.38;100.00;102185.31;5134803;56;1143015;-90
2021/11/15 10:50:56;;;;;;;65.83;37.73;;;;;;;5.39;100.00;102199.70;5092486;57;1142383;-91
2021/11/15 10:56:26;;;;;;;64.90;36.17;;;;;;;5.33;100.00;102200.34;5176479;56;1141010;-88
2021/11/15 11:01:36;;;;;;;54.17;30.03;;;;;;;5.30;100.00;102197.36;5177183;56;1143182;-91
2021/11/15 11:07:02;;;;;;;50.13;26.43;;;;;;;5.29;100.00;102195.19;5248639;54;1143079;-90
2021/11/15 11:12:29;;;;;;;53.00;26.70;;;;;;;5.26;100.00;102199.20;5298540;54;1143084;-89
2021/11/15 11:17:26;;;;;;;42.50;21.30;;;;;;;5.21;100.00;102205.02;5295121;54;1138262;-93
2021/11/15 11:27:55;;;;;;;61.37;32.73;;;;;;;5.13;100.00;102213.58;5183280;56;1140997;-89
2021/11/15 11:33:00;;;;;;;72.70;38.27;;;;;;;5.11;100.00;102205.33;5176761;56;1138972;-89
2021/11/15 11:38:06;;;;;;;69.80;33.53;;;;;;;5.09;100.00;102209.75;5176282;56;1138383;-89
2021/11/15 11:43:13;;;;;;;42.87;23.97;;;;;;;5.09;100.00;102204.06;5175939;56;1140964;-88
2021/11/15 11:48:19;;;;;;;55.73;29.85;;;;;;;5.09;100.00;102199.27;5176441;57;1141215;-90
2021/11/15 11:53:30;;;;;;;59.87;28.60;;;;;;;5.09;100.00;102197.95;5175564;57;1140333;-90
2021/11/15 11:58:39;;;;;;;50.20;27.70;;;;;;;5.07;100.00;102193.20;5090906;57;1138975;-89
2021/11/15 12:04:19;;;;;;;48.13;26.50;;;;;;;5.11;100.00;102192.22;5054249;57;1140401;-92
2021/11/15 12:09:28;;;;;;;61.20;33.02;;;;;;;5.17;100.00;102196.00;5057119;56;1143103;-89
2021/11/15 12:14:38;;;;;;;62.73;33.53;;;;;;;5.17;100.00;102199.48;5112131;57;1142539;-90
2021/11/15 12:20:04;;;;;;;55.67;27.37;;;;;;;5.16;100.00;102196.89;5110039;56;1141147;-88
2021/11/15 12:25:22;;;;;;;61.37;28.87;;;;;;;5.18;100.00;102195.95;5070299;57;1142405;-88
2021/11/15 12:30:38;;;;;;;76.97;39.93;;;;;;;5.27;100.00;102190.44;5058885;57;1143263;-91
2021/11/15 12:36:12;;;;;;;77.00;35.90;;;;;;;5.30;100.00;102193.42;4985758;59;1143197;-88
2021/11/15 12:41:29;;;;;;;72.77;32.60;;;;;;;5.33;100.00;102188.55;4894024;60;1141091;-89
2021/11/15 12:46:53;;;;;;;52.50;26.50;;;;;;;5.33;100.00;102191.17;4915274;58;1141079;-91
2021/11/15 12:52:15;;;;;;;74.72;35.60;;;;;;;5.35;100.00;102185.43;5124389;56;1142385;-90
2021/11/15 12:57:25;;;;;;;80.57;38.60;;;;;;;5.36;100.00;102189.74;5165260;56;1143127;-90
2021/11/15 13:02:32;;;;;;;63.50;32.97;;;;;;;5.36;100.00;102187.12;5100403;57;1140947;-89
2021/11/15 13:07:39;;;;;;;78.20;35.70;;;;;;;5.38;100.00;102194.50;5175062;56;1142984;-89
2021/11/15 13:12:45;;;;;;;92.20;54.10;;;;;;;5.41;100.00;102190.48;5275833;55;1141090;-89
2021/11/15 13:17:52;;;;;;;74.87;37.13;;;;;;;5.40;100.00;102177.81;5275636;55;1140992;-89
2021/11/15 13:22:58;;;;;;;71.83;34.77;;;;;;;5.35;100.00;102173.63;5277032;55;1138902;-91
2021/11/15 13:28:05;;;;;;;75.07;35.40;;;;;;;5.32;100.00;102174.56;5276184;55;1138335;-92
2021/11/15 13:33:10;;;;;;;64.23;31.40;;;;;;;5.33;100.00;102184.16;5276130;55;1141142;-89
2021/11/15 13:38:17;;;;;;;198.07;108.37;;;;;;;5.37;100.00;102180.97;5277938;55;1141333;-89
2021/11/15 13:43:25;;;;;;;247.87;116.00;;;;;;;5.35;100.00;102175.77;5277390;55;1142712;-88
2021/11/15 13:48:31;;;;;;;123.27;53.40;;;;;;;5.33;100.00;102175.42;5275811;55;1143104;-90
2021/11/15 13:53:38;;;;;;;126.50;52.00;;;;;;;5.32;100.00;102178.50;5262733;55;1143332;-89
2021/11/15 13:58:45;;;;;;;151.73;65.87;;;;;;;5.32;100.00;102174.56;5207078;55;1143154;-89
2021/11/15 14:03:50;;;;;;;168.50;68.63;;;;;;;5.34;100.00;102171.45;5100571;57;1143265;-91
2021/11/15 14:09:00;;;;;;;84.53;38.73;;;;;;;5.32;100.00;102173.25;5184964;56;1141507;-90
2021/11/15 14:14:06;;;;;;;89.63;42.30;;;;;;;5.32;100.00;102170.63;5096334;57;1141076;-90
2021/11/15 14:19:12;;;;;;;76.20;38.63;;;;;;;5.35;100.00;102176.25;5185303;56;1141044;-91
2021/11/15 14:24:19;;;;;;;81.00;42.57;;;;;;;5.37;100.00;102180.97;5095670;57;1138863;-92
2021/11/15 14:29:25;;;;;;;84.67;44.43;;;;;;;5.33;100.00;102184.16;5280148;55;1138942;-86
2021/11/15 14:34:30;;;;;;;74.57;38.97;;;;;;;5.32;100.00;102187.69;5208456;56;1138883;-85
2021/11/15 14:39:36;;;;;;;76.10;38.03;;;;;;;5.34;100.00;102182.40;5191812;55;1139254;-85
2021/11/15 14:44:45;;;;;;;77.77;42.57;;;;;;;5.35;100.00;102176.25;5157522;56;1143353;-87
2021/11/15 14:49:53;;;;;;;75.40;37.30;;;;;;;5.33;100.00;102177.59;5157741;56;1140974;-89
2021/11/15 14:54:59;;;;;;;67.00;34.03;;;;;;;5.32;100.00;102170.63;5159842;56;1143226;-86
2021/11/15 15:00:08;;;;;;;85.63;41.07;;;;;;;5.35;100.00;102163.13;5117841;57;1143044;-87
2021/11/15 15:05:14;;;;;;;108.23;55.67;;;;;;;5.33;100.00;102165.80;5159629;55;1143230;-85
2021/11/15 15:10:22;;;;;;;96.43;47.10;;;;;;;5.32;100.00;102169.32;5142376;56;1143050;-84
2021/11/15 15:15:31;;;;;;;70.37;33.57;;;;;;;5.30;100.00;102168.50;5115757;57;1141305;-86
2021/11/15 15:20:38;;;;;;;71.83;34.00;;;;;;;5.29;100.00;102167.64;5128202;56;1143021;-86
2021/11/15 15:25:44;;;;;;;113.90;54.10;;;;;;;5.29;100.00;102168.95;5147043;56;1142561;-87
2021/11/15 15:30:50;;;;;;;761.03;479.70;;;;;;;5.28;100.00;102163.30;5143117;57;1142971;-87
2021/11/15 15:35:56;;;;;;;625.13;417.63;;;;;;;5.28;100.00;102163.75;5141397;57;1145085;-87
2021/11/15 15:41:03;;;;;;;155.33;93.63;;;;;;;5.31;100.00;102175.47;5128525;56;1147093;-87
2021/11/15 15:46:15;;;;;;;78.73;40.73;;;;;;;5.33;100.00;102176.74;5127085;56;1145428;-89
2021/11/15 15:51:19;;;;;;;76.27;38.10;;;;;;;5.31;100.00;102178.09;5142059;56;1140936;-87
2021/11/15 15:56:29;;;;;;;70.83;37.10;;;;;;;5.32;100.00;102168.01;5139209;56;1143090;-91
2021/11/15 16:01:35;;;;;;;88.93;42.43;;;;;;;5.35;100.00;102173.63;5144045;57;1142992;-89
2021/11/15 16:22:14;;;;;;;79.03;41.47;;;;;;;5.30;100.00;102174.61;5171404;55;1143108;-89
2021/11/15 16:27:20;;;;;;;92.27;42.73;;;;;;;5.26;100.00;102176.91;5154484;56;1141029;-83
2021/11/15 16:32:25;;;;;;;97.10;41.57;;;;;;;5.25;100.00;102177.80;5121877;57;1141027;-87
2021/11/15 16:37:31;;;;;;;98.37;40.17;;;;;;;5.25;100.00;102179.57;5175854;56;1142535;-87
2021/11/15 16:42:38;;;;;;;89.33;41.13;;;;;;;5.25;100.00;102180.88;5194125;56;1143202;-89
2021/11/15 16:47:55;;;;;;;100.30;45.17;;;;;;;5.27;100.00;102180.39;5284873;54;1143400;-90
2021/11/15 16:53:01;;;;;;;101.53;47.17;;;;;;;5.24;100.00;102178.70;5289799;55;1142994;-90
2021/11/15 16:58:07;;;;;;;276.60;136.57;;;;;;;5.26;100.00;102178.22;5243151;55;1145437;-91
2021/11/15 17:03:14;;;;;;;268.13;159.60;;;;;;;5.26;100.00;102173.42;5148172;56;1147299;-90
2021/11/15 17:08:25;;;;;;;107.77;53.53;;;;;;;5.25;100.00;102169.94;5126472;56;1147189;-88
2021/11/15 17:13:32;;;;;;;96.50;42.17;;;;;;;5.24;100.00;102172.16;5146186;57;1143079;-86
2021/11/15 17:18:38;;;;;;;88.37;43.42;;;;;;;5.26;100.00;102173.42;5109836;57;1141079;-89
2021/11/15 17:23:45;;;;;;;87.27;43.27;;;;;;;5.25;100.00;102173.88;5099262;57;1141329;-90
2021/11/15 17:28:54;;;;;;;86.87;41.90;;;;;;;5.25;100.00;102169.94;5141006;56;1140812;-88
2021/11/15 17:34:00;;;;;;;86.30;42.50;;;;;;;5.22;100.00;102170.47;5154593;57;1138981;-87
2021/11/15 17:39:07;;;;;;;93.00;44.60;;;;;;;5.22;100.00;102165.23;5124160;56;1141030;-74
2021/11/15 17:44:13;;;;;;;98.87;45.07;;;;;;;5.24;100.00;102162.11;5130069;56;1141068;-76
2021/11/15 17:49:20;;;;;;;108.87;50.53;;;;;;;5.24;100.00;102146.38;5125713;56;1141327;-77
2021/11/15 17:54:29;;;;;;;86.13;41.90;;;;;;;5.20;100.00;102146.05;5132309;56;1141089;-76
2021/11/15 17:59:33;;;;;;;86.03;40.17;;;;;;;5.22;100.00;102137.69;5132845;56;1141332;-77
2021/11/15 18:04:40;;;;;;;80.03;38.67;;;;;;;5.22;100.00;102136.38;5124672;56;1140842;-77
2021/11/15 18:09:50;;;;;;;90.07;43.63;;;;;;;5.24;100.00;102131.50;5130715;56;1140973;-77
2021/11/15 18:14:55;;;;;;;98.97;44.38;;;;;;;5.22;100.00;102135.06;5117755;56;1141067;-78
2021/11/15 18:20:04;;;;;;;90.30;42.80;;;;;;;5.21;100.00;102136.83;5135471;57;1141414;-79
2021/11/15 18:25:10;;;;;;;89.40;42.87;;;;;;;5.21;100.00;102127.64;5136128;57;1141061;-79
2021/11/15 18:30:18;;;;;;;91.30;39.87;;;;;;;5.21;100.00;102127.64;5126108;56;1139211;-79
2021/11/15 18:35:25;;;;;;;96.47;42.83;;;;;;;5.25;100.00;102120.55;5091292;57;1138981;-79
2021/11/15 18:40:37;;;;;;;95.03;43.27;;;;;;;5.26;100.00;102119.65;5116342;57;1143135;-77
2021/11/15 18:45:40;;;;;;;92.20;43.87;;;;;;;5.28;100.00;102116.53;5125613;57;1140922;-80
2021/11/15 18:50:47;;;;;;;129.83;58.90;;;;;;;5.30;100.00;102119.52;5103441;57;1143105;-74
2021/11/15 18:55:54;;;;;;;101.30;48.65;;;;;;;5.33;100.00;102126.89;5103725;56;1145181;-75
2021/11/15 19:01:01;;;;;;;91.43;44.10;;;;;;;5.36;100.00;102122.84;5147970;56;1145126;-84
2021/11/15 19:06:07;;;;;;;96.82;46.37;;;;;;;5.38;100.00;102119.27;5146364;56;1143048;-77
2021/11/15 19:11:26;;;;;;;94.60;45.20;;;;;;;5.36;100.00;102114.97;5140162;57;1143275;-78
2021/11/15 19:16:27;;;;;;;87.57;43.00;;;;;;;5.37;100.00;102121.48;5090539;57;1143169;-80
2021/11/15 19:21:40;;;;;;;86.43;40.93;;;;;;;5.37;100.00;102114.92;5135376;56;1143166;-77
2021/11/15 19:26:50;;;;;;;91.90;43.77;;;;;;;5.42;100.00;102115.66;5175214;56;1143222;-76
2021/11/15 19:31:59;;;;;;;96.77;44.63;;;;;;;5.41;100.00;102110.00;5137419;57;1143085;-77
2021/11/15 19:37:04;;;;;;;96.87;44.57;;;;;;;5.42;100.00;102117.42;5140715;56;1143169;-77
2021/11/15 19:42:10;;;;;;;94.00;41.37;;;;;;;5.43;100.00;102115.20;5116112;57;1143348;-75
2021/11/15 19:47:17;;;;;;;92.00;42.50;;;;;;;5.46;100.00;102112.04;5133047;56;1143299;-78
2021/11/15 19:52:25;;;;;;;106.47;45.97;;;;;;;5.47;100.00;102115.52;5162085;56;1143103;-80
2021/11/15 19:57:30;;;;;;;95.40;43.20;;;;;;;5.46;100.00;102111.18;5129027;57;1145254;-77
2021/11/15 20:02:36;;;;;;;94.07;43.90;;;;;;;5.45;100.00;102110.77;5171467;56;1143438;-79
2021/11/15 20:07:43;;;;;;;99.03;42.20;;;;;;;5.47;100.00;102105.89;5108444;56;1143156;-77
2021/11/15 20:12:49;;;;;;;110.53;48.33;;;;;;;5.53;100.00;102105.68;5090856;56;1143137;-80
2021/11/15 20:17:56;;;;;;;111.27;46.53;;;;;;;5.52;100.00;102100.02;5107450;56;1145379;-79
2021/11/15 20:23:03;;;;;;;111.73;48.47;;;;;;;5.51;100.00;102093.05;5154911;57;1145376;-82
2021/11/15 20:28:11;;;;;;;102.60;44.83;;;;;;;5.55;100.00;102087.27;5137271;56;1145226;-77
2021/11/15 20:33:20;;;;;;;110.47;46.67;;;;;;;5.57;100.00;102090.25;5090644;57;1145323;-78
2021/11/15 20:38:29;;;;;;;106.40;46.07;;;;;;;5.61;100.00;102091.02;5090856;57;1145247;-79
2021/11/15 20:43:35;;;;;;;109.70;47.33;;;;;;;5.66;100.00;102090.39;5090792;57;1145075;-75
2021/11/15 20:48:41;;;;;;;113.17;48.23;;;;;;;5.65;100.00;102082.97;5090606;57;1145167;-82
2021/11/15 20:53:47;;;;;;;124.17;56.20;;;;;;;5.68;100.00;102084.64;5090627;57;1145454;-80
2021/11/15 20:58:53;;;;;;;129.45;56.65;;;;;;;5.71;100.00;102077.13;5151779;56;1145167;-77
2021/11/15 21:03:59;;;;;;;114.83;48.53;;;;;;;5.74;100.00;102068.71;5170492;56;1145473;-79
2021/11/15 21:09:05;;;;;;;96.07;41.43;;;;;;;5.72;100.00;102061.34;5170570;56;1145300;-78
2021/11/15 21:19:23;;;;;;;116.60;48.23;;;;;;;5.84;100.00;102053.50;5286616;55;47529;-80
2021/11/15 21:24:47;;;;;;;118.55;47.00;;;;;;;5.79;100.00;102060.23;5126091;56;1139034;-78
2021/11/15 21:29:50;;;;;;;98.78;43.55;;;;;;;5.80;100.00;102068.52;5037306;57;1143138;-76
2021/11/15 21:34:55;;;;;;;103.67;42.77;;;;;;;5.82;100.00;102072.38;5111702;57;1141115;-82
2021/11/15 21:40:01;;;;;;;105.87;46.07;;;;;;;5.85;100.00;102063.95;5076796;57;1143181;-77
2021/11/15 21:45:08;;;;;;;100.00;41.10;;;;;;;5.83;100.00;102059.20;5070121;58;1143186;-79
2021/11/15 21:50:14;;;;;;;100.63;42.90;;;;;;;5.81;100.00;102059.70;4981615;57;1143224;-78
2021/11/15 21:55:20;;;;;;;116.43;48.50;;;;;;;5.83;100.00;102068.39;4972451;57;1143265;-77
2021/11/15 22:00:32;;;;;;;122.90;53.15;;;;;;;5.86;100.00;102068.30;5034835;58;1143128;-77
2021/11/15 22:05:39;;;;;;;114.85;46.88;;;;;;;5.89;100.00;102068.23;4894907;58;1143225;-79
2021/11/15 22:10:47;;;;;;;105.70;43.07;;;;;;;5.88;100.00;102062.58;5026975;58;1143247;-77
2021/11/15 22:15:53;;;;;;;92.27;44.88;;;;;;;5.92;100.00;102058.09;5052438;57;1143481;-82
2021/11/15 22:21:01;;;;;;;108.60;46.40;;;;;;;5.92;100.00;102053.70;5097511;57;1141260;-80
2021/11/15 22:26:07;;;;;;;110.57;50.47;;;;;;;5.93;100.00;102051.47;5101990;57;1141020;-79
2021/11/15 22:31:13;;;;;;;111.70;48.97;;;;;;;5.93;100.00;102050.16;5010787;57;1141313;-77
2021/11/15 22:36:20;;;;;;;115.97;51.00;;;;;;;5.97;100.00;102048.27;5022900;57;1145317;-75
2021/11/15 22:41:26;;;;;;;113.47;49.97;;;;;;;5.96;100.00;102046.55;5106522;57;1145296;-79
2021/11/15 22:46:31;;;;;;;129.30;49.93;;;;;;;5.94;100.00;102049.70;5017764;58;1143125;-81
2021/11/15 22:51:37;;;;;;;103.55;43.05;;;;;;;5.96;100.00;102050.48;5084452;57;1145236;-77
2021/11/15 22:56:42;;;;;;;103.57;42.53;;;;;;;5.97;100.00;102045.19;5090006;57;1145263;-78
2021/11/15 23:01:48;;;;;;;112.40;47.13;;;;;;;6.01;100.00;102032.81;5063935;57;1145443;-80
2021/11/15 23:06:55;;;;;;;126.20;52.20;;;;;;;6.04;100.00;102033.17;5041935;57;1145535;-79
2021/11/15 23:12:00;;;;;;;119.13;48.83;;;;;;;6.06;100.00;102033.52;5042000;57;1145280;-79